sensor_id;sensor_type;location;lat;lon;timestamp;P1;durP1;ratioP1;P2;durP2;ratioP2
6259;SDS011;3163;51.516;4.000;2022-12-18T00:01:42;26.73;;;11.93;;
6259;SDS011;3163;51.516;4.000;2022-12-18T00:04:11;21.60;;;9.80;;
6259;SDS011;3163;51.516;4.000;2022-12-18T00:06:43;25.13;;;11.10;;
6259;SDS011;3163;51.516;4.000;2022-12-18T00:09:09;25.27;;;10.30;;
6259;SDS011;3163;51.516;4.000;2022-12-18T00:11:35;21.13;;;11.07;;
6259;SDS011;3163;51.516;4.000;2022-12-18T00:14:01;15.67;;;8.20;;
6259;SDS011;3163;51.516;4.000;2022-12-18T00:16:26;19.03;;;11.30;;
6259;SDS011;3163;51.516;4.000;2022-12-18T00:18:53;15.87;;;7.67;;
6259;SDS011;3163;51.516;4.000;2022-12-18T00:21:20;20.93;;;9.47;;
6259;SDS011;3163;51.516;4.000;2022-12-18T00:23:47;36.60;;;14.47;;
6259;SDS011;3163;51.516;4.000;2022-12-18T00:26:14;13.73;;;8.30;;
6259;SDS011;3163;51.516;4.000;2022-12-18T00:28:43;17.60;;;9.43;;
6259;SDS011;3163;51.516;4.000;2022-12-18T00:31:10;24.30;;;11.87;;
6259;SDS011;3163;51.516;4.000;2022-12-18T00:33:38;14.53;;;7.63;;
6259;SDS011;3163;51.516;4.000;2022-12-18T00:36:10;14.70;;;8.37;;
6259;SDS011;3163;51.516;4.000;2022-12-18T00:38:37;27.13;;;11.83;;
6259;SDS011;3163;51.516;4.000;2022-12-18T00:41:04;20.33;;;8.80;;
6259;SDS011;3163;51.516;4.000;2022-12-18T00:43:30;17.93;;;10.00;;
6259;SDS011;3163;51.516;4.000;2022-12-18T00:45:58;18.50;;;10.00;;
6259;SDS011;3163;51.516;4.000;2022-12-18T00:48:24;16.53;;;7.77;;
6259;SDS011;3163;51.516;4.000;2022-12-18T00:50:50;20.67;;;9.30;;
6259;SDS011;3163;51.516;4.000;2022-12-18T00:53:16;18.93;;;9.00;;
6259;SDS011;3163;51.516;4.000;2022-12-18T00:55:42;23.20;;;10.97;;
6259;SDS011;3163;51.516;4.000;2022-12-18T00:58:08;25.03;;;11.57;;
6259;SDS011;3163;51.516;4.000;2022-12-18T01:00:35;15.77;;;8.50;;
6259;SDS011;3163;51.516;4.000;2022-12-18T01:03:00;17.13;;;8.97;;
6259;SDS011;3163;51.516;4.000;2022-12-18T01:05:26;19.33;;;9.40;;
6259;SDS011;3163;51.516;4.000;2022-12-18T01:07:52;30.03;;;13.33;;
6259;SDS011;3163;51.516;4.000;2022-12-18T01:10:18;33.43;;;14.87;;
6259;SDS011;3163;51.516;4.000;2022-12-18T01:12:44;22.40;;;10.60;;
6259;SDS011;3163;51.516;4.000;2022-12-18T01:15:10;26.30;;;10.73;;
6259;SDS011;3163;51.516;4.000;2022-12-18T01:17:38;20.83;;;8.77;;
6259;SDS011;3163;51.516;4.000;2022-12-18T01:20:04;18.90;;;9.37;;
6259;SDS011;3163;51.516;4.000;2022-12-18T01:22:33;26.57;;;10.90;;
6259;SDS011;3163;51.516;4.000;2022-12-18T01:24:59;34.53;;;15.10;;
6259;SDS011;3163;51.516;4.000;2022-12-18T01:27:24;17.67;;;9.53;;
6259;SDS011;3163;51.516;4.000;2022-12-18T01:29:50;31.77;;;13.27;;
6259;SDS011;3163;51.516;4.000;2022-12-18T01:32:16;31.60;;;13.17;;
6259;SDS011;3163;51.516;4.000;2022-12-18T01:34:42;36.40;;;14.83;;
6259;SDS011;3163;51.516;4.000;2022-12-18T01:37:07;25.77;;;12.40;;
6259;SDS011;3163;51.516;4.000;2022-12-18T01:39:33;26.27;;;12.43;;
6259;SDS011;3163;51.516;4.000;2022-12-18T01:41:59;20.53;;;9.57;;
6259;SDS011;3163;51.516;4.000;2022-12-18T01:52:40;18.17;;;8.87;;
6259;SDS011;3163;51.516;4.000;2022-12-18T01:55:08;18.87;;;9.23;;
6259;SDS011;3163;51.516;4.000;2022-12-18T01:57:35;26.20;;;11.97;;
6259;SDS011;3163;51.516;4.000;2022-12-18T02:00:04;17.70;;;8.97;;
6259;SDS011;3163;51.516;4.000;2022-12-18T02:02:34;23.67;;;10.97;;
6259;SDS011;3163;51.516;4.000;2022-12-18T02:05:00;20.10;;;10.50;;
6259;SDS011;3163;51.516;4.000;2022-12-18T02:10:23;17.13;;;7.70;;
6259;SDS011;3163;51.516;4.000;2022-12-18T02:13:19;22.33;;;12.93;;
6259;SDS011;3163;51.516;4.000;2022-12-18T02:16:16;22.57;;;10.03;;
6259;SDS011;3163;51.516;4.000;2022-12-18T02:18:45;24.60;;;10.70;;
6259;SDS011;3163;51.516;4.000;2022-12-18T02:21:26;21.60;;;9.33;;
6259;SDS011;3163;51.516;4.000;2022-12-18T02:24:24;19.23;;;10.10;;
6259;SDS011;3163;51.516;4.000;2022-12-18T02:26:47;18.80;;;9.70;;
6259;SDS011;3163;51.516;4.000;2022-12-18T02:29:29;26.73;;;10.87;;
6259;SDS011;3163;51.516;4.000;2022-12-18T02:32:15;20.57;;;11.57;;
6259;SDS011;3163;51.516;4.000;2022-12-18T02:34:44;15.00;;;8.47;;
6259;SDS011;3163;51.516;4.000;2022-12-18T02:37:12;21.57;;;10.93;;
6259;SDS011;3163;51.516;4.000;2022-12-18T02:39:41;20.87;;;10.50;;
6259;SDS011;3163;51.516;4.000;2022-12-18T02:42:08;18.83;;;10.60;;
6259;SDS011;3163;51.516;4.000;2022-12-18T02:44:41;18.23;;;10.57;;
6259;SDS011;3163;51.516;4.000;2022-12-18T02:47:12;23.40;;;10.47;;
6259;SDS011;3163;51.516;4.000;2022-12-18T02:57:44;19.60;;;10.97;;
6259;SDS011;3163;51.516;4.000;2022-12-18T03:03:14;19.73;;;10.37;;
6259;SDS011;3163;51.516;4.000;2022-12-18T03:05:53;17.97;;;9.20;;
6259;SDS011;3163;51.516;4.000;2022-12-18T03:08:27;16.73;;;6.80;;
6259;SDS011;3163;51.516;4.000;2022-12-18T03:13:35;15.30;;;8.27;;
6259;SDS011;3163;51.516;4.000;2022-12-18T03:16:04;16.87;;;9.90;;
6259;SDS011;3163;51.516;4.000;2022-12-18T03:18:34;19.17;;;10.93;;
6259;SDS011;3163;51.516;4.000;2022-12-18T03:21:05;14.17;;;7.70;;
6259;SDS011;3163;51.516;4.000;2022-12-18T03:23:34;19.07;;;8.87;;
6259;SDS011;3163;51.516;4.000;2022-12-18T03:26:12;13.67;;;7.30;;
6259;SDS011;3163;51.516;4.000;2022-12-18T03:28:43;12.00;;;7.47;;
6259;SDS011;3163;51.516;4.000;2022-12-18T03:31:16;15.00;;;8.07;;
6259;SDS011;3163;51.516;4.000;2022-12-18T03:33:46;19.73;;;9.53;;
6259;SDS011;3163;51.516;4.000;2022-12-18T03:36:17;14.20;;;8.07;;
6259;SDS011;3163;51.516;4.000;2022-12-18T03:38:43;15.07;;;7.60;;
6259;SDS011;3163;51.516;4.000;2022-12-18T03:41:29;20.60;;;8.87;;
6259;SDS011;3163;51.516;4.000;2022-12-18T03:44:11;16.97;;;9.27;;
6259;SDS011;3163;51.516;4.000;2022-12-18T03:52:09;17.07;;;8.37;;
6259;SDS011;3163;51.516;4.000;2022-12-18T03:54:38;16.63;;;7.70;;
6259;SDS011;3163;51.516;4.000;2022-12-18T03:57:07;17.37;;;9.90;;
6259;SDS011;3163;51.516;4.000;2022-12-18T03:59:41;11.73;;;7.33;;
6259;SDS011;3163;51.516;4.000;2022-12-18T04:02:09;15.80;;;8.60;;
6259;SDS011;3163;51.516;4.000;2022-12-18T04:04:35;15.20;;;7.67;;
6259;SDS011;3163;51.516;4.000;2022-12-18T04:07:04;15.90;;;7.63;;
6259;SDS011;3163;51.516;4.000;2022-12-18T04:09:31;22.33;;;8.93;;
6259;SDS011;3163;51.516;4.000;2022-12-18T04:11:58;13.87;;;7.23;;
6259;SDS011;3163;51.516;4.000;2022-12-18T04:14:24;15.50;;;6.53;;
6259;SDS011;3163;51.516;4.000;2022-12-18T04:16:50;14.70;;;6.17;;
6259;SDS011;3163;51.516;4.000;2022-12-18T04:19:15;13.33;;;8.17;;
6259;SDS011;3163;51.516;4.000;2022-12-18T04:21:41;19.40;;;9.17;;
6259;SDS011;3163;51.516;4.000;2022-12-18T04:24:06;16.27;;;8.97;;
6259;SDS011;3163;51.516;4.000;2022-12-18T04:26:33;10.43;;;6.43;;
6259;SDS011;3163;51.516;4.000;2022-12-18T04:28:59;16.40;;;8.97;;
6259;SDS011;3163;51.516;4.000;2022-12-18T04:31:25;19.43;;;8.00;;
6259;SDS011;3163;51.516;4.000;2022-12-18T04:33:51;14.97;;;7.13;;
6259;SDS011;3163;51.516;4.000;2022-12-18T04:36:16;13.47;;;6.17;;
6259;SDS011;3163;51.516;4.000;2022-12-18T04:38:42;15.67;;;8.30;;
6259;SDS011;3163;51.516;4.000;2022-12-18T04:41:08;10.43;;;6.47;;
6259;SDS011;3163;51.516;4.000;2022-12-18T04:43:33;16.37;;;7.60;;
6259;SDS011;3163;51.516;4.000;2022-12-18T04:46:03;14.90;;;7.00;;
6259;SDS011;3163;51.516;4.000;2022-12-18T04:48:29;13.60;;;7.17;;
6259;SDS011;3163;51.516;4.000;2022-12-18T04:50:55;10.03;;;5.83;;
6259;SDS011;3163;51.516;4.000;2022-12-18T04:53:20;10.67;;;6.37;;
6259;SDS011;3163;51.516;4.000;2022-12-18T04:55:46;14.57;;;6.67;;
6259;SDS011;3163;51.516;4.000;2022-12-18T04:58:11;10.60;;;6.27;;
6259;SDS011;3163;51.516;4.000;2022-12-18T05:00:37;10.47;;;6.97;;
6259;SDS011;3163;51.516;4.000;2022-12-18T05:03:03;13.10;;;7.20;;
6259;SDS011;3163;51.516;4.000;2022-12-18T05:05:28;15.10;;;8.40;;
6259;SDS011;3163;51.516;4.000;2022-12-18T05:07:54;9.23;;;5.50;;
6259;SDS011;3163;51.516;4.000;2022-12-18T05:10:19;14.33;;;7.10;;
6259;SDS011;3163;51.516;4.000;2022-12-18T05:12:45;14.93;;;7.73;;
6259;SDS011;3163;51.516;4.000;2022-12-18T05:15:23;14.93;;;6.90;;
6259;SDS011;3163;51.516;4.000;2022-12-18T05:17:49;11.33;;;7.00;;
6259;SDS011;3163;51.516;4.000;2022-12-18T05:20:15;12.43;;;5.83;;
6259;SDS011;3163;51.516;4.000;2022-12-18T05:22:40;8.97;;;5.77;;
6259;SDS011;3163;51.516;4.000;2022-12-18T05:25:06;11.80;;;6.93;;
6259;SDS011;3163;51.516;4.000;2022-12-18T05:27:32;8.47;;;6.03;;
6259;SDS011;3163;51.516;4.000;2022-12-18T05:29:58;9.40;;;6.20;;
6259;SDS011;3163;51.516;4.000;2022-12-18T05:32:23;12.53;;;6.33;;
6259;SDS011;3163;51.516;4.000;2022-12-18T05:34:49;14.43;;;6.27;;
6259;SDS011;3163;51.516;4.000;2022-12-18T05:37:14;11.50;;;7.17;;
6259;SDS011;3163;51.516;4.000;2022-12-18T05:39:40;12.43;;;6.07;;
6259;SDS011;3163;51.516;4.000;2022-12-18T05:42:06;8.93;;;5.97;;
6259;SDS011;3163;51.516;4.000;2022-12-18T05:44:31;10.60;;;5.33;;
6259;SDS011;3163;51.516;4.000;2022-12-18T05:46:57;8.10;;;5.93;;
6259;SDS011;3163;51.516;4.000;2022-12-18T05:49:22;9.20;;;5.40;;
6259;SDS011;3163;51.516;4.000;2022-12-18T05:51:48;13.67;;;6.23;;
6259;SDS011;3163;51.516;4.000;2022-12-18T05:54:13;13.63;;;5.73;;
6259;SDS011;3163;51.516;4.000;2022-12-18T05:56:39;11.43;;;5.53;;
6259;SDS011;3163;51.516;4.000;2022-12-18T05:59:05;8.23;;;5.70;;
6259;SDS011;3163;51.516;4.000;2022-12-18T06:01:30;9.83;;;5.70;;
6259;SDS011;3163;51.516;4.000;2022-12-18T06:03:56;9.20;;;4.87;;
6259;SDS011;3163;51.516;4.000;2022-12-18T06:06:22;8.43;;;5.20;;
6259;SDS011;3163;51.516;4.000;2022-12-18T06:08:50;12.03;;;5.77;;
6259;SDS011;3163;51.516;4.000;2022-12-18T06:11:17;8.60;;;5.60;;
6259;SDS011;3163;51.516;4.000;2022-12-18T06:13:44;11.37;;;5.50;;
6259;SDS011;3163;51.516;4.000;2022-12-18T06:16:11;10.17;;;5.80;;
6259;SDS011;3163;51.516;4.000;2022-12-18T06:18:37;10.00;;;5.67;;
6259;SDS011;3163;51.516;4.000;2022-12-18T06:21:03;8.10;;;5.37;;
6259;SDS011;3163;51.516;4.000;2022-12-18T06:23:29;10.07;;;6.13;;
6259;SDS011;3163;51.516;4.000;2022-12-18T06:25:54;8.23;;;5.53;;
6259;SDS011;3163;51.516;4.000;2022-12-18T06:28:20;8.53;;;6.00;;
6259;SDS011;3163;51.516;4.000;2022-12-18T06:30:46;12.03;;;6.43;;
6259;SDS011;3163;51.516;4.000;2022-12-18T06:33:13;10.40;;;5.27;;
6259;SDS011;3163;51.516;4.000;2022-12-18T06:35:39;10.57;;;5.30;;
6259;SDS011;3163;51.516;4.000;2022-12-18T06:38:05;10.63;;;5.70;;
6259;SDS011;3163;51.516;4.000;2022-12-18T06:40:31;9.37;;;5.57;;
6259;SDS011;3163;51.516;4.000;2022-12-18T06:42:57;9.93;;;4.80;;
6259;SDS011;3163;51.516;4.000;2022-12-18T06:45:23;9.57;;;4.93;;
6259;SDS011;3163;51.516;4.000;2022-12-18T06:47:49;13.47;;;6.57;;
6259;SDS011;3163;51.516;4.000;2022-12-18T06:50:15;10.17;;;5.70;;
6259;SDS011;3163;51.516;4.000;2022-12-18T06:52:40;8.27;;;5.70;;
6259;SDS011;3163;51.516;4.000;2022-12-18T06:55:08;8.33;;;4.87;;
6259;SDS011;3163;51.516;4.000;2022-12-18T06:57:35;7.10;;;5.03;;
6259;SDS011;3163;51.516;4.000;2022-12-18T07:00:01;8.93;;;4.67;;
6259;SDS011;3163;51.516;4.000;2022-12-18T07:02:27;7.00;;;5.00;;
6259;SDS011;3163;51.516;4.000;2022-12-18T07:04:53;6.30;;;4.43;;
6259;SDS011;3163;51.516;4.000;2022-12-18T07:07:18;11.53;;;5.63;;
6259;SDS011;3163;51.516;4.000;2022-12-18T07:09:44;7.53;;;4.53;;
6259;SDS011;3163;51.516;4.000;2022-12-18T07:12:10;7.60;;;4.67;;
6259;SDS011;3163;51.516;4.000;2022-12-18T07:14:36;10.80;;;5.80;;
6259;SDS011;3163;51.516;4.000;2022-12-18T07:17:01;13.53;;;5.20;;
6259;SDS011;3163;51.516;4.000;2022-12-18T07:19:27;8.47;;;4.37;;
6259;SDS011;3163;51.516;4.000;2022-12-18T07:21:52;7.13;;;4.40;;
6259;SDS011;3163;51.516;4.000;2022-12-18T07:24:19;8.13;;;4.70;;
6259;SDS011;3163;51.516;4.000;2022-12-18T07:26:45;8.67;;;5.23;;
6259;SDS011;3163;51.516;4.000;2022-12-18T07:29:11;8.67;;;5.20;;
6259;SDS011;3163;51.516;4.000;2022-12-18T07:31:38;7.83;;;4.73;;
6259;SDS011;3163;51.516;4.000;2022-12-18T07:34:03;7.60;;;3.33;;
6259;SDS011;3163;51.516;4.000;2022-12-18T07:36:29;9.17;;;4.00;;
6259;SDS011;3163;51.516;4.000;2022-12-18T07:38:55;6.13;;;4.10;;
6259;SDS011;3163;51.516;4.000;2022-12-18T07:41:21;6.23;;;4.37;;
6259;SDS011;3163;51.516;4.000;2022-12-18T07:43:47;9.90;;;5.27;;
6259;SDS011;3163;51.516;4.000;2022-12-18T07:46:13;7.47;;;4.83;;
6259;SDS011;3163;51.516;4.000;2022-12-18T07:48:41;11.00;;;5.27;;
6259;SDS011;3163;51.516;4.000;2022-12-18T07:51:07;7.17;;;5.00;;
6259;SDS011;3163;51.516;4.000;2022-12-18T07:53:33;8.43;;;5.13;;
6259;SDS011;3163;51.516;4.000;2022-12-18T07:56:01;12.47;;;5.57;;
6259;SDS011;3163;51.516;4.000;2022-12-18T07:58:30;6.77;;;4.43;;
6259;SDS011;3163;51.516;4.000;2022-12-18T08:01:29;7.10;;;3.70;;
6259;SDS011;3163;51.516;4.000;2022-12-18T08:03:47;10.17;;;5.53;;
6259;SDS011;3163;51.516;4.000;2022-12-18T08:06:13;9.37;;;5.20;;
6259;SDS011;3163;51.516;4.000;2022-12-18T08:08:38;7.90;;;3.90;;
6259;SDS011;3163;51.516;4.000;2022-12-18T08:11:06;7.17;;;5.07;;
6259;SDS011;3163;51.516;4.000;2022-12-18T08:13:31;9.00;;;4.10;;
6259;SDS011;3163;51.516;4.000;2022-12-18T08:15:58;5.83;;;3.13;;
6259;SDS011;3163;51.516;4.000;2022-12-18T08:18:25;6.07;;;3.73;;
6259;SDS011;3163;51.516;4.000;2022-12-18T08:20:51;7.77;;;4.03;;
6259;SDS011;3163;51.516;4.000;2022-12-18T08:23:17;7.13;;;4.10;;
6259;SDS011;3163;51.516;4.000;2022-12-18T08:25:43;6.27;;;4.53;;
6259;SDS011;3163;51.516;4.000;2022-12-18T08:28:09;7.10;;;4.60;;
6259;SDS011;3163;51.516;4.000;2022-12-18T08:30:35;8.27;;;5.20;;
6259;SDS011;3163;51.516;4.000;2022-12-18T08:33:00;5.33;;;3.00;;
6259;SDS011;3163;51.516;4.000;2022-12-18T08:35:26;9.57;;;5.93;;
6259;SDS011;3163;51.516;4.000;2022-12-18T08:37:53;6.43;;;4.17;;
6259;SDS011;3163;51.516;4.000;2022-12-18T08:40:18;10.40;;;5.43;;
6259;SDS011;3163;51.516;4.000;2022-12-18T08:42:44;7.10;;;4.80;;
6259;SDS011;3163;51.516;4.000;2022-12-18T08:45:28;5.00;;;3.90;;
6259;SDS011;3163;51.516;4.000;2022-12-18T08:47:53;6.03;;;3.70;;
6259;SDS011;3163;51.516;4.000;2022-12-18T08:50:20;6.67;;;4.10;;
6259;SDS011;3163;51.516;4.000;2022-12-18T08:52:45;5.60;;;4.10;;
6259;SDS011;3163;51.516;4.000;2022-12-18T08:55:11;13.13;;;5.47;;
6259;SDS011;3163;51.516;4.000;2022-12-18T08:57:36;11.17;;;5.10;;
6259;SDS011;3163;51.516;4.000;2022-12-18T09:00:03;9.40;;;4.97;;
6259;SDS011;3163;51.516;4.000;2022-12-18T09:02:29;13.23;;;5.23;;
6259;SDS011;3163;51.516;4.000;2022-12-18T09:04:55;7.53;;;5.27;;
6259;SDS011;3163;51.516;4.000;2022-12-18T09:07:20;7.60;;;4.77;;
6259;SDS011;3163;51.516;4.000;2022-12-18T09:09:46;6.80;;;4.00;;
6259;SDS011;3163;51.516;4.000;2022-12-18T09:12:12;6.30;;;4.23;;
6259;SDS011;3163;51.516;4.000;2022-12-18T09:14:37;6.10;;;3.60;;
6259;SDS011;3163;51.516;4.000;2022-12-18T09:17:03;5.73;;;3.93;;
6259;SDS011;3163;51.516;4.000;2022-12-18T09:19:29;4.33;;;3.67;;
6259;SDS011;3163;51.516;4.000;2022-12-18T09:21:54;8.17;;;5.23;;
6259;SDS011;3163;51.516;4.000;2022-12-18T09:24:22;11.90;;;6.03;;
6259;SDS011;3163;51.516;4.000;2022-12-18T09:26:48;7.30;;;4.57;;
6259;SDS011;3163;51.516;4.000;2022-12-18T09:29:17;9.33;;;5.10;;
6259;SDS011;3163;51.516;4.000;2022-12-18T09:31:48;7.33;;;5.47;;
6259;SDS011;3163;51.516;4.000;2022-12-18T09:34:17;9.67;;;5.10;;
6259;SDS011;3163;51.516;4.000;2022-12-18T09:36:45;6.67;;;3.73;;
6259;SDS011;3163;51.516;4.000;2022-12-18T09:39:11;4.23;;;3.23;;
6259;SDS011;3163;51.516;4.000;2022-12-18T09:44:23;9.10;;;4.93;;
6259;SDS011;3163;51.516;4.000;2022-12-18T09:49:44;5.23;;;4.10;;
6259;SDS011;3163;51.516;4.000;2022-12-18T09:52:28;5.23;;;3.57;;
6259;SDS011;3163;51.516;4.000;2022-12-18T09:55:04;4.17;;;3.57;;
6259;SDS011;3163;51.516;4.000;2022-12-18T09:57:47;8.80;;;4.20;;
6259;SDS011;3163;51.516;4.000;2022-12-18T10:00:21;7.10;;;4.53;;
6259;SDS011;3163;51.516;4.000;2022-12-18T10:02:48;3.43;;;3.13;;
6259;SDS011;3163;51.516;4.000;2022-12-18T10:05:17;6.80;;;4.53;;
6259;SDS011;3163;51.516;4.000;2022-12-18T10:07:55;6.47;;;4.00;;
6259;SDS011;3163;51.516;4.000;2022-12-18T10:21:07;5.63;;;3.37;;
6259;SDS011;3163;51.516;4.000;2022-12-18T10:23:52;7.93;;;4.37;;
6259;SDS011;3163;51.516;4.000;2022-12-18T10:26:39;5.90;;;4.00;;
6259;SDS011;3163;51.516;4.000;2022-12-18T10:29:13;4.90;;;3.67;;
6259;SDS011;3163;51.516;4.000;2022-12-18T10:31:40;6.10;;;4.30;;
6259;SDS011;3163;51.516;4.000;2022-12-18T10:34:12;7.00;;;3.83;;
6259;SDS011;3163;51.516;4.000;2022-12-18T10:36:39;5.53;;;4.20;;
6259;SDS011;3163;51.516;4.000;2022-12-18T10:39:15;6.20;;;4.33;;
6259;SDS011;3163;51.516;4.000;2022-12-18T10:41:41;7.70;;;4.93;;
6259;SDS011;3163;51.516;4.000;2022-12-18T10:44:23;8.63;;;5.17;;
6259;SDS011;3163;51.516;4.000;2022-12-18T10:46:55;12.37;;;5.07;;
6259;SDS011;3163;51.516;4.000;2022-12-18T10:49:30;9.13;;;5.63;;
6259;SDS011;3163;51.516;4.000;2022-12-18T10:54:46;6.10;;;4.20;;
6259;SDS011;3163;51.516;4.000;2022-12-18T10:59:55;6.60;;;4.40;;
6259;SDS011;3163;51.516;4.000;2022-12-18T11:02:26;7.60;;;3.67;;
6259;SDS011;3163;51.516;4.000;2022-12-18T11:05:02;5.33;;;3.73;;
6259;SDS011;3163;51.516;4.000;2022-12-18T11:07:50;5.17;;;4.07;;
6259;SDS011;3163;51.516;4.000;2022-12-18T11:10:17;7.83;;;4.80;;
6259;SDS011;3163;51.516;4.000;2022-12-18T11:12:44;7.57;;;4.03;;
6259;SDS011;3163;51.516;4.000;2022-12-18T11:15:14;9.87;;;5.60;;
6259;SDS011;3163;51.516;4.000;2022-12-18T11:17:51;3.80;;;3.00;;
6259;SDS011;3163;51.516;4.000;2022-12-18T11:25:27;7.07;;;3.97;;
6259;SDS011;3163;51.516;4.000;2022-12-18T11:30:29;7.27;;;3.40;;
6259;SDS011;3163;51.516;4.000;2022-12-18T11:32:57;6.00;;;4.33;;
6259;SDS011;3163;51.516;4.000;2022-12-18T11:35:32;9.20;;;5.30;;
6259;SDS011;3163;51.516;4.000;2022-12-18T11:43:41;5.77;;;4.30;;
6259;SDS011;3163;51.516;4.000;2022-12-18T11:46:19;7.63;;;5.07;;
6259;SDS011;3163;51.516;4.000;2022-12-18T11:48:58;5.53;;;4.23;;
6259;SDS011;3163;51.516;4.000;2022-12-18T11:51:35;9.80;;;4.50;;
6259;SDS011;3163;51.516;4.000;2022-12-18T11:54:10;5.80;;;3.53;;
6259;SDS011;3163;51.516;4.000;2022-12-18T11:59:48;8.93;;;4.33;;
6259;SDS011;3163;51.516;4.000;2022-12-18T12:10:43;8.83;;;4.33;;
6259;SDS011;3163;51.516;4.000;2022-12-18T12:30:05;7.57;;;4.77;;
6259;SDS011;3163;51.516;4.000;2022-12-18T12:38:28;7.10;;;4.57;;
6259;SDS011;3163;51.516;4.000;2022-12-18T12:40:59;5.90;;;3.93;;
6259;SDS011;3163;51.516;4.000;2022-12-18T12:43:38;4.53;;;3.57;;
6259;SDS011;3163;51.516;4.000;2022-12-18T12:46:13;8.13;;;4.57;;
6259;SDS011;3163;51.516;4.000;2022-12-18T12:48:48;5.77;;;2.93;;
6259;SDS011;3163;51.516;4.000;2022-12-18T12:51:35;4.97;;;3.17;;
6259;SDS011;3163;51.516;4.000;2022-12-18T12:54:04;7.27;;;4.27;;
6259;SDS011;3163;51.516;4.000;2022-12-18T12:56:37;4.93;;;3.83;;
6259;SDS011;3163;51.516;4.000;2022-12-18T12:59:13;7.53;;;4.63;;
6259;SDS011;3163;51.516;4.000;2022-12-18T13:04:41;4.07;;;2.80;;
6259;SDS011;3163;51.516;4.000;2022-12-18T13:10:11;5.00;;;3.00;;
6259;SDS011;3163;51.516;4.000;2022-12-18T13:12:50;7.47;;;3.60;;
6259;SDS011;3163;51.516;4.000;2022-12-18T13:15:32;5.07;;;3.80;;
6259;SDS011;3163;51.516;4.000;2022-12-18T13:20:39;5.90;;;3.87;;
6259;SDS011;3163;51.516;4.000;2022-12-18T13:30:59;8.53;;;5.63;;
6259;SDS011;3163;51.516;4.000;2022-12-18T13:38:38;9.87;;;5.97;;
6259;SDS011;3163;51.516;4.000;2022-12-18T13:43:56;5.80;;;4.97;;
6259;SDS011;3163;51.516;4.000;2022-12-18T13:46:49;9.23;;;5.43;;
6259;SDS011;3163;51.516;4.000;2022-12-18T13:52:15;10.50;;;5.60;;
6259;SDS011;3163;51.516;4.000;2022-12-18T13:55:14;7.43;;;4.87;;
6259;SDS011;3163;51.516;4.000;2022-12-18T13:57:39;7.50;;;4.67;;
6259;SDS011;3163;51.516;4.000;2022-12-18T14:02:51;5.17;;;4.27;;
6259;SDS011;3163;51.516;4.000;2022-12-18T14:05:35;6.73;;;3.97;;
6259;SDS011;3163;51.516;4.000;2022-12-18T14:08:06;6.77;;;3.87;;
6259;SDS011;3163;51.516;4.000;2022-12-18T14:10:35;6.33;;;4.67;;
6259;SDS011;3163;51.516;4.000;2022-12-18T14:13:09;6.77;;;4.70;;
6259;SDS011;3163;51.516;4.000;2022-12-18T14:15:41;11.57;;;5.70;;
6259;SDS011;3163;51.516;4.000;2022-12-18T14:20:34;10.70;;;6.07;;
6259;SDS011;3163;51.516;4.000;2022-12-18T14:23:00;9.63;;;6.00;;
6259;SDS011;3163;51.516;4.000;2022-12-18T14:25:26;7.67;;;5.43;;
6259;SDS011;3163;51.516;4.000;2022-12-18T14:28:14;10.20;;;5.57;;
6259;SDS011;3163;51.516;4.000;2022-12-18T14:30:41;9.10;;;4.90;;
6259;SDS011;3163;51.516;4.000;2022-12-18T14:35:41;4.13;;;3.80;;
6259;SDS011;3163;51.516;4.000;2022-12-18T14:38:21;13.13;;;6.73;;
6259;SDS011;3163;51.516;4.000;2022-12-18T14:43:28;4.97;;;3.60;;
6259;SDS011;3163;51.516;4.000;2022-12-18T14:45:56;6.17;;;4.67;;
6259;SDS011;3163;51.516;4.000;2022-12-18T14:48:31;7.80;;;4.80;;
6259;SDS011;3163;51.516;4.000;2022-12-18T14:53:32;6.70;;;4.40;;
6259;SDS011;3163;51.516;4.000;2022-12-18T14:56:15;7.67;;;4.60;;
6259;SDS011;3163;51.516;4.000;2022-12-18T14:59:17;12.43;;;6.50;;
6259;SDS011;3163;51.516;4.000;2022-12-18T15:07:05;5.13;;;4.03;;
6259;SDS011;3163;51.516;4.000;2022-12-18T15:09:34;12.83;;;4.93;;
6259;SDS011;3163;51.516;4.000;2022-12-18T15:12:00;9.83;;;5.37;;
6259;SDS011;3163;51.516;4.000;2022-12-18T15:16:57;7.20;;;5.80;;
6259;SDS011;3163;51.516;4.000;2022-12-18T15:19:40;7.03;;;4.57;;
6259;SDS011;3163;51.516;4.000;2022-12-18T15:22:27;8.93;;;5.33;;
6259;SDS011;3163;51.516;4.000;2022-12-18T15:24:55;6.90;;;4.07;;
6259;SDS011;3163;51.516;4.000;2022-12-18T15:27:32;7.60;;;4.97;;
6259;SDS011;3163;51.516;4.000;2022-12-18T15:32:35;6.07;;;4.07;;
6259;SDS011;3163;51.516;4.000;2022-12-18T15:37:36;6.93;;;4.80;;
6259;SDS011;3163;51.516;4.000;2022-12-18T15:40:04;10.00;;;5.70;;
6259;SDS011;3163;51.516;4.000;2022-12-18T15:42:30;10.17;;;5.70;;
6259;SDS011;3163;51.516;4.000;2022-12-18T15:45:14;8.40;;;4.70;;
6259;SDS011;3163;51.516;4.000;2022-12-18T15:47:40;7.23;;;4.50;;
6259;SDS011;3163;51.516;4.000;2022-12-18T15:50:09;10.90;;;6.40;;
6259;SDS011;3163;51.516;4.000;2022-12-18T15:52:39;7.63;;;3.70;;
6259;SDS011;3163;51.516;4.000;2022-12-18T15:55:13;7.93;;;4.90;;
6259;SDS011;3163;51.516;4.000;2022-12-18T15:57:59;9.13;;;5.60;;
6259;SDS011;3163;51.516;4.000;2022-12-18T16:00:25;9.07;;;5.17;;
6259;SDS011;3163;51.516;4.000;2022-12-18T16:02:50;6.77;;;3.93;;
6259;SDS011;3163;51.516;4.000;2022-12-18T16:05:17;5.57;;;3.63;;
6259;SDS011;3163;51.516;4.000;2022-12-18T16:07:44;8.97;;;5.00;;
6259;SDS011;3163;51.516;4.000;2022-12-18T16:10:10;8.53;;;5.37;;
6259;SDS011;3163;51.516;4.000;2022-12-18T16:12:36;9.27;;;5.00;;
6259;SDS011;3163;51.516;4.000;2022-12-18T16:15:03;10.10;;;5.50;;
6259;SDS011;3163;51.516;4.000;2022-12-18T16:17:30;6.67;;;3.97;;
6259;SDS011;3163;51.516;4.000;2022-12-18T16:19:56;10.73;;;6.93;;
6259;SDS011;3163;51.516;4.000;2022-12-18T16:22:23;9.37;;;5.37;;
6259;SDS011;3163;51.516;4.000;2022-12-18T16:24:50;6.23;;;3.73;;
6259;SDS011;3163;51.516;4.000;2022-12-18T16:27:17;11.50;;;5.93;;
6259;SDS011;3163;51.516;4.000;2022-12-18T16:29:43;10.43;;;6.33;;
6259;SDS011;3163;51.516;4.000;2022-12-18T16:32:11;10.43;;;6.17;;
6259;SDS011;3163;51.516;4.000;2022-12-18T16:34:39;11.40;;;6.13;;
6259;SDS011;3163;51.516;4.000;2022-12-18T16:37:07;7.50;;;4.70;;
6259;SDS011;3163;51.516;4.000;2022-12-18T16:39:34;8.43;;;4.87;;
6259;SDS011;3163;51.516;4.000;2022-12-18T16:42:04;9.57;;;5.60;;
6259;SDS011;3163;51.516;4.000;2022-12-18T16:44:41;13.80;;;6.80;;
6259;SDS011;3163;51.516;4.000;2022-12-18T16:47:07;7.80;;;4.50;;
6259;SDS011;3163;51.516;4.000;2022-12-18T16:49:33;14.30;;;5.67;;
6259;SDS011;3163;51.516;4.000;2022-12-18T16:51:58;11.33;;;5.83;;
6259;SDS011;3163;51.516;4.000;2022-12-18T16:54:24;8.17;;;4.70;;
6259;SDS011;3163;51.516;4.000;2022-12-18T16:56:50;7.90;;;5.23;;
6259;SDS011;3163;51.516;4.000;2022-12-18T16:59:16;6.40;;;4.70;;
6259;SDS011;3163;51.516;4.000;2022-12-18T17:01:42;8.50;;;5.10;;
6259;SDS011;3163;51.516;4.000;2022-12-18T17:04:08;7.50;;;5.33;;
6259;SDS011;3163;51.516;4.000;2022-12-18T17:06:35;6.93;;;4.27;;
6259;SDS011;3163;51.516;4.000;2022-12-18T17:09:06;14.37;;;6.87;;
6259;SDS011;3163;51.516;4.000;2022-12-18T17:11:34;16.53;;;8.37;;
6259;SDS011;3163;51.516;4.000;2022-12-18T17:14:22;7.90;;;5.30;;
6259;SDS011;3163;51.516;4.000;2022-12-18T17:16:47;7.57;;;5.30;;
6259;SDS011;3163;51.516;4.000;2022-12-18T17:19:13;12.97;;;6.43;;
6259;SDS011;3163;51.516;4.000;2022-12-18T17:21:41;9.47;;;5.87;;
6259;SDS011;3163;51.516;4.000;2022-12-18T17:24:07;13.10;;;6.30;;
6259;SDS011;3163;51.516;4.000;2022-12-18T17:26:33;8.93;;;4.90;;
6259;SDS011;3163;51.516;4.000;2022-12-18T17:28:59;10.40;;;5.70;;
6259;SDS011;3163;51.516;4.000;2022-12-18T17:31:26;10.53;;;5.73;;
6259;SDS011;3163;51.516;4.000;2022-12-18T17:33:54;14.47;;;7.87;;
6259;SDS011;3163;51.516;4.000;2022-12-18T17:36:20;7.97;;;5.00;;
6259;SDS011;3163;51.516;4.000;2022-12-18T17:38:50;12.57;;;5.73;;
6259;SDS011;3163;51.516;4.000;2022-12-18T17:41:19;11.77;;;6.37;;
6259;SDS011;3163;51.516;4.000;2022-12-18T17:43:55;9.47;;;5.87;;
6259;SDS011;3163;51.516;4.000;2022-12-18T17:46:23;11.33;;;5.93;;
6259;SDS011;3163;51.516;4.000;2022-12-18T17:48:49;12.37;;;6.10;;
6259;SDS011;3163;51.516;4.000;2022-12-18T17:51:16;14.50;;;8.77;;
6259;SDS011;3163;51.516;4.000;2022-12-18T17:53:43;10.40;;;6.23;;